UAL91 KLAX-EGLL
Flight info
| Callsign | UAL91 |
|---|---|
| Flight time | N/A |
| Altitude | 33000 |
| Route | OSHNN1 BEALE J146 DVC DCT HBU J146 GLD DCT PWE DCT KP66G/N0488F350 DCT KG75K DCT BAE DCT DAYYY DCT RUBKI DCT 46N078W DCT YBG DCT YBC DCT KODIK/M084F350 DCT 55N050W 56N040W 55N030W 55N020W DCT VENER/N0480F350 DCT KOKIB DCT ENJEX DCT AVZAC DCT INFEC DCT JETZI DCT AMFUL DCT ORZEB/N0453F230 P2 SIRIC |
| Aircraft | B77W/H-SDE1E2E3FGHIJ2J3J4J5M1RWXY/LB1D1 |
Departure
| Time | 2026-05-06 05:38 |
|---|---|
| Airport | Los Angeles International Airport (KLAX) |
Arrival
| Time | N/A |
|---|---|
| Airport | London Heathrow Airport (EGLL) |
| Time | Latitude | Longitude | Altitude | Speed | Heading |
|---|---|---|---|---|---|
| 2026-05-06 05:23 | 33.94505 | -118.41468 | 99 ft | 2 kts | 263° |
| 2026-05-06 05:25 | 33.94505 | -118.41465 | 99 ft | 1 kts | 263° |
| 2026-05-06 05:25 | 33.94507 | -118.41444 | 101 ft | 3 kts | 263° |
| 2026-05-06 05:25 | 33.94510 | -118.41420 | 99 ft | 3 kts | 263° |
| 2026-05-06 05:25 | 33.94512 | -118.41397 | 97 ft | 3 kts | 266° |
| 2026-05-06 05:26 | 33.94511 | -118.41374 | 97 ft | 3 kts | 295° |
| 2026-05-06 05:26 | 33.94501 | -118.41358 | 99 ft | 3 kts | 338° |
| 2026-05-06 05:26 | 33.94489 | -118.41353 | 99 ft | 1 kts | 353° |
| 2026-05-06 05:26 | 33.94471 | -118.41351 | 101 ft | 3 kts | 353° |
| 2026-05-06 05:27 | 33.94456 | -118.41349 | 99 ft | 1 kts | 353° |
| 2026-05-06 05:27 | 33.94456 | -118.41348 | 99 ft | 0 kts | 353° |
| 2026-05-06 05:31 | 33.94466 | -118.41350 | 98 ft | 4 kts | 353° |
| 2026-05-06 05:31 | 33.94496 | -118.41354 | 99 ft | 4 kts | 353° |
| 2026-05-06 05:31 | 33.94525 | -118.41359 | 100 ft | 4 kts | 353° |
| 2026-05-06 05:32 | 33.94555 | -118.41363 | 101 ft | 4 kts | 353° |
| 2026-05-06 05:32 | 33.94579 | -118.41366 | 100 ft | 2 kts | 353° |
| 2026-05-06 05:32 | 33.94607 | -118.41371 | 102 ft | 10 kts | 353° |
| 2026-05-06 05:32 | 33.94682 | -118.41382 | 102 ft | 11 kts | 352° |
| 2026-05-06 05:33 | 33.94762 | -118.41383 | 106 ft | 12 kts | 28° |
| 2026-05-06 05:33 | 33.94791 | -118.41292 | 106 ft | 12 kts | 79° |
| 2026-05-06 05:33 | 33.94802 | -118.41194 | 107 ft | 12 kts | 83° |
| 2026-05-06 05:33 | 33.94816 | -118.41052 | 108 ft | 19 kts | 83° |
| 2026-05-06 05:34 | 33.94832 | -118.40896 | 108 ft | 19 kts | 83° |
| 2026-05-06 05:34 | 33.94848 | -118.40739 | 106 ft | 19 kts | 83° |
| 2026-05-06 05:34 | 33.94864 | -118.40582 | 106 ft | 19 kts | 83° |
| 2026-05-06 05:34 | 33.94881 | -118.40426 | 106 ft | 19 kts | 82° |
| 2026-05-06 05:35 | 33.94897 | -118.40269 | 106 ft | 19 kts | 83° |
| 2026-05-06 05:35 | 33.94913 | -118.40114 | 106 ft | 17 kts | 83° |
| 2026-05-06 05:35 | 33.94925 | -118.39993 | 104 ft | 14 kts | 83° |
| 2026-05-06 05:35 | 33.94941 | -118.39942 | 106 ft | 0 kts | 51° |
| 2026-05-06 05:37 | 33.94993 | -118.39915 | 109 ft | 12 kts | 4° |
| 2026-05-06 05:37 | 33.95045 | -118.39946 | 111 ft | 4 kts | 272° |
| 2026-05-06 05:38 | 33.95031 | -118.40079 | 113 ft | 51 kts | 263° |
| 2026-05-06 05:38 | 33.94945 | -118.40898 | 111 ft | 145 kts | 263° |
| 2026-05-06 05:38 | 33.94788 | -118.42428 | 222 ft | 218 kts | 263° |
| 2026-05-06 05:38 | 33.94610 | -118.44151 | 1484 ft | 215 kts | 263° |
| 2026-05-06 05:39 | 33.94422 | -118.46012 | 2359 ft | 217 kts | 263° |
| 2026-05-06 05:39 | 33.94236 | -118.47866 | 2745 ft | 234 kts | 256° |
| 2026-05-06 05:39 | 33.93340 | -118.49515 | 3135 ft | 246 kts | 215° |
| 2026-05-06 05:39 | 33.91710 | -118.50186 | 3680 ft | 254 kts | 183° |
| 2026-05-06 05:40 | 33.89913 | -118.50219 | 4286 ft | 262 kts | 182° |
| 2026-05-06 05:40 | 33.88076 | -118.50282 | 5063 ft | 266 kts | 183° |
| 2026-05-06 05:40 | 33.86207 | -118.50394 | 5782 ft | 272 kts | 184° |
| 2026-05-06 05:40 | 33.84298 | -118.50543 | 6495 ft | 278 kts | 185° |
| 2026-05-06 05:41 | 33.82371 | -118.50718 | 7144 ft | 284 kts | 184° |
| 2026-05-06 05:41 | 33.80396 | -118.50916 | 7882 ft | 286 kts | 184° |
| 2026-05-06 05:41 | 33.78391 | -118.51129 | 8554 ft | 292 kts | 183° |
| 2026-05-06 05:41 | 33.76342 | -118.51352 | 9218 ft | 298 kts | 183° |
| 2026-05-06 05:42 | 33.74257 | -118.51581 | 9906 ft | 304 kts | 182° |
| 2026-05-06 05:42 | 33.72139 | -118.51645 | 10382 ft | 308 kts | 167° |
| 2026-05-06 05:42 | 33.70131 | -118.50677 | 10549 ft | 320 kts | 138° |
| 2026-05-06 05:42 | 33.68682 | -118.48617 | 10723 ft | 332 kts | 112° |
| 2026-05-06 05:43 | 33.67843 | -118.45969 | 10898 ft | 349 kts | 105° |
| 2026-05-06 05:43 | 33.67047 | -118.43139 | 11289 ft | 365 kts | 106° |
| 2026-05-06 05:43 | 33.66214 | -118.40258 | 11865 ft | 375 kts | 107° |
| 2026-05-06 05:43 | 33.65378 | -118.37354 | 12554 ft | 380 kts | 104° |
| 2026-05-06 05:44 | 33.64756 | -118.34205 | 13345 ft | 382 kts | 97° |
| 2026-05-06 05:44 | 33.64436 | -118.31021 | 14102 ft | 386 kts | 91° |
| 2026-05-06 05:44 | 33.64407 | -118.27796 | 14791 ft | 388 kts | 87° |
| 2026-05-06 05:44 | 33.64437 | -118.24549 | 15517 ft | 391 kts | 87° |
| 2026-05-06 05:45 | 33.64543 | -118.21298 | 16151 ft | 390 kts | 79° |
| 2026-05-06 05:45 | 33.65429 | -118.18221 | 16631 ft | 393 kts | 58° |
| 2026-05-06 05:45 | 33.67040 | -118.15634 | 17346 ft | 393 kts | 44° |
| 2026-05-06 05:45 | 33.69146 | -118.13551 | 18059 ft | 394 kts | 36° |
| 2026-05-06 05:46 | 33.71373 | -118.11596 | 18662 ft | 399 kts | 36° |
| 2026-05-06 05:46 | 33.73636 | -118.09640 | 19318 ft | 401 kts | 36° |
| 2026-05-06 05:46 | 33.75896 | -118.07672 | 20003 ft | 402 kts | 36° |
| 2026-05-06 05:46 | 33.78156 | -118.05679 | 20670 ft | 404 kts | 36° |
| 2026-05-06 05:47 | 33.80427 | -118.03656 | 21299 ft | 407 kts | 37° |
| 2026-05-06 05:47 | 33.82707 | -118.01612 | 21913 ft | 410 kts | 37° |
| 2026-05-06 05:47 | 33.84993 | -117.99555 | 22571 ft | 412 kts | 37° |
| 2026-05-06 05:47 | 33.87290 | -117.97487 | 23177 ft | 414 kts | 37° |
| 2026-05-06 05:48 | 33.89604 | -117.95403 | 23789 ft | 415 kts | 38° |
| 2026-05-06 05:48 | 33.91916 | -117.93314 | 24331 ft | 416 kts | 38° |
| 2026-05-06 05:48 | 33.94193 | -117.91235 | 24873 ft | 417 kts | 38° |
| 2026-05-06 05:48 | 33.96500 | -117.89122 | 25403 ft | 417 kts | 39° |
| 2026-05-06 05:49 | 33.98814 | -117.87003 | 25925 ft | 418 kts | 39° |